Time;durP1;ratioP1;P1;durP2;ratioP2;P2;SDS_P1;SDS_P2;PMS_P1;PMS_P2;Temp;Humidity;BMP_temperature;BMP_pressure;BME280_temperature;BME280_humidity;BME280_pressure;Samples;Min_cycle;Max_cycle;Signal;HPM_P1;HPM_P2
2022/01/31 00:02:13;;;;;;;299.40;281.67;;;3.70;99.90;;;;;;5073798;28;20123;-63
2022/01/31 00:04:39;;;;;;;321.27;302.58;;;3.80;99.90;;;;;;5074138;28;20049;-63
2022/01/31 00:07:06;;;;;;;299.92;281.70;;;3.80;99.90;;;;;;5072924;28;20055;-63
2022/01/31 00:09:31;;;;;;;308.58;290.90;;;3.80;99.90;;;;;;5073437;28;20383;-63
2022/01/31 00:12:03;;;;;;;318.45;300.08;;;3.70;99.90;;;;;;5074108;28;20048;-63
2022/01/31 00:14:34;;;;;;;312.40;294.60;;;3.60;99.90;;;;;;5033145;28;20128;-63
2022/01/31 00:17:00;;;;;;;280.77;264.38;;;3.60;99.90;;;;;;5034104;28;20053;-63
2022/01/31 00:19:26;;;;;;;348.52;328.83;;;3.60;99.90;;;;;;5059154;28;20044;-64
2022/01/31 00:21:53;;;;;;;360.17;339.77;;;3.50;99.90;;;;;;5072861;28;20406;-63
2022/01/31 00:24:18;;;;;;;358.20;337.83;;;3.60;99.90;;;;;;5073678;28;20363;-63
2022/01/31 00:26:44;;;;;;;333.80;314.48;;;3.70;99.90;;;;;;5073650;28;20086;-63
2022/01/31 00:29:10;;;;;;;331.58;311.13;;;3.60;99.90;;;;;;5071952;28;20105;-63
2022/01/31 00:31:36;;;;;;;331.52;312.90;;;3.40;99.90;;;;;;5052356;28;20036;-63
2022/01/31 00:34:02;;;;;;;320.98;300.83;;;3.60;99.90;;;;;;5052582;28;20126;-63
2022/01/31 00:36:27;;;;;;;361.05;340.38;;;3.60;99.90;;;;;;5055605;28;20044;-63
2022/01/31 00:38:53;;;;;;;369.10;342.90;;;3.50;99.90;;;;;;5073239;28;20041;-63
2022/01/31 00:41:20;;;;;;;299.52;282.38;;;3.50;99.90;;;;;;5072948;28;20125;-63
2022/01/31 00:43:57;;;;;;;343.55;324.13;;;3.50;99.90;;;;;;5056075;28;20084;-63
2022/01/31 00:46:28;;;;;;;360.98;340.85;;;3.80;99.90;;;;;;5069071;28;20053;-63
2022/01/31 00:48:54;;;;;;;376.90;355.90;;;3.60;99.90;;;;;;5072503;28;20040;-63
2022/01/31 00:51:19;;;;;;;318.40;300.50;;;3.50;99.90;;;;;;5073179;28;20544;-63
2022/01/31 00:53:46;;;;;;;303.05;285.38;;;3.50;99.90;;;;;;5071831;28;20048;-63
2022/01/31 00:56:11;;;;;;;454.92;417.48;;;3.50;99.90;;;;;;5072627;28;20041;-63
2022/01/31 00:58:37;;;;;;;288.90;273.00;;;3.40;99.90;;;;;;5071750;28;20045;-64
2022/01/31 01:01:03;;;;;;;401.65;379.67;;;3.50;99.90;;;;;;5073277;28;20048;-63
2022/01/31 01:03:28;;;;;;;403.02;379.58;;;3.60;99.90;;;;;;5070885;28;20441;-63
2022/01/31 01:05:54;;;;;;;427.80;403.30;;;3.60;99.90;;;;;;5072726;28;20036;-63
2022/01/31 01:08:20;;;;;;;309.42;291.65;;;3.60;99.90;;;;;;5071637;28;20491;-63
2022/01/31 01:10:46;;;;;;;403.65;380.67;;;3.60;99.90;;;;;;5072486;28;20053;-63
2022/01/31 01:13:12;;;;;;;338.73;318.08;;;3.60;99.90;;;;;;5058277;28;20045;-63
2022/01/31 01:15:38;;;;;;;398.83;371.35;;;3.60;99.90;;;;;;5031849;28;20391;-63
2022/01/31 01:18:04;;;;;;;364.10;340.90;;;3.80;99.90;;;;;;5032167;28;20477;-63
2022/01/31 01:20:30;;;;;;;479.30;450.40;;;3.60;99.90;;;;;;5043458;28;20097;-63
2022/01/31 01:22:57;;;;;;;509.65;477.02;;;3.60;99.90;;;;;;5072850;28;20068;-63
2022/01/31 01:25:24;;;;;;;490.10;458.75;;;3.70;99.90;;;;;;5070965;28;20052;-63
2022/01/31 01:27:52;;;;;;;522.65;489.30;;;3.60;99.90;;;;;;5072629;28;20105;-63
2022/01/31 01:30:19;;;;;;;541.63;505.67;;;3.60;99.90;;;;;;5061294;28;20102;-63
2022/01/31 01:32:58;;;;;;;441.85;413.63;;;3.60;99.90;;;;;;5052165;28;20120;-64
2022/01/31 01:35:29;;;;;;;467.13;437.05;;;3.60;99.90;;;;;;5047741;28;20056;-64
2022/01/31 01:37:55;;;;;;;540.35;505.23;;;3.50;99.90;;;;;;5054641;28;20055;-64
2022/01/31 01:40:21;;;;;;;530.92;493.35;;;3.50;99.90;;;;;;5071692;28;20465;-64
2022/01/31 01:42:47;;;;;;;551.15;514.20;;;3.40;99.90;;;;;;5064566;28;20118;-64
2022/01/31 01:45:12;;;;;;;544.63;508.42;;;3.40;99.90;;;;;;5051910;28;20533;-63
2022/01/31 01:47:41;;;;;;;546.28;510.70;;;3.50;99.90;;;;;;5050956;28;20033;-64
2022/01/31 01:50:07;;;;;;;647.60;578.83;;;3.40;99.90;;;;;;5052574;28;20441;-64
2022/01/31 01:52:34;;;;;;;549.22;512.78;;;3.30;99.90;;;;;;5054876;28;20049;-63
2022/01/31 01:55:01;;;;;;;525.60;491.30;;;3.20;99.90;;;;;;5055749;28;20048;-63
2022/01/31 01:57:29;;;;;;;580.03;538.53;;;3.10;99.90;;;;;;5073042;28;20041;-62
2022/01/31 01:59:57;;;;;;;587.72;537.13;;;3.00;99.90;;;;;;5057849;28;20119;-63
2022/01/31 02:02:26;;;;;;;500.58;468.17;;;3.00;99.90;;;;;;5075492;28;20037;-63
2022/01/31 02:04:54;;;;;;;620.17;570.30;;;3.00;99.90;;;;;;5074548;28;20037;-62
2022/01/31 02:07:34;;;;;;;481.42;449.17;;;3.00;99.90;;;;;;5074421;28;20071;-64
2022/01/31 02:10:04;;;;;;;550.38;507.40;;;3.00;99.90;;;;;;5075278;28;20040;-62
2022/01/31 02:12:43;;;;;;;607.75;561.75;;;3.10;99.90;;;;;;5071726;28;20075;-62
2022/01/31 02:15:16;;;;;;;595.40;554.75;;;2.90;99.90;;;;;;5074642;28;20124;-61
2022/01/31 02:18:01;;;;;;;572.45;532.90;;;2.90;99.90;;;;;;5076306;28;20049;-62
2022/01/31 02:20:27;;;;;;;580.15;541.38;;;;;;;;;;5074130;28;20048;-61
2022/01/31 02:22:55;;;;;;;683.58;638.10;;;;;;;;;;5074451;28;20036;-63
2022/01/31 02:25:35;;;;;;;722.38;672.42;;;;;;;;;;5075034;28;20094;-62
2022/01/31 02:28:29;;;;;;;733.10;684.10;;;;;;;;;;5074689;28;20045;-62
2022/01/31 02:30:56;;;;;;;572.97;537.25;;;;;;;;;;5045220;28;20053;-62
2022/01/31 02:33:22;;;;;;;563.92;528.55;;;;;;;;;;5074946;28;20056;-62
2022/01/31 02:35:52;;;;;;;559.17;521.85;;;2.40;99.90;;;;;;5055703;28;20401;-61
2022/01/31 02:38:18;;;;;;;510.90;480.38;;;2.40;99.90;;;;;;5034713;28;20049;-61
2022/01/31 02:40:50;;;;;;;415.80;390.98;;;2.30;99.90;;;;;;5029295;28;20387;-61
2022/01/31 02:43:21;;;;;;;432.88;406.17;;;2.30;99.90;;;;;;5054035;28;20067;-62
2022/01/31 02:45:47;;;;;;;592.20;555.85;;;2.30;99.90;;;;;;5054582;28;20098;-61
2022/01/31 02:48:16;;;;;;;411.58;386.60;;;2.30;99.90;;;;;;5055158;28;20144;-62
2022/01/31 02:50:41;;;;;;;530.75;498.45;;;2.30;99.90;;;;;;5073701;28;20082;-62
2022/01/31 02:53:22;;;;;;;550.25;517.70;;;2.30;99.90;;;;;;5074640;28;20072;-61
2022/01/31 02:55:49;;;;;;;689.15;644.10;;;2.20;99.90;;;;;;5073800;28;20074;-62
2022/01/31 02:58:18;;;;;;;498.60;469.83;;;2.20;99.90;;;;;;5056796;28;20059;-62
2022/01/31 03:00:47;;;;;;;482.63;452.65;;;2.10;99.90;;;;;;5070224;28;20110;-61
2022/01/31 03:03:16;;;;;;;547.53;513.58;;;2.10;99.90;;;;;;5053311;28;20139;-62
2022/01/31 03:05:42;;;;;;;369.73;349.08;;;2.00;99.90;;;;;;5055230;28;20395;-61
2022/01/31 03:08:08;;;;;;;298.10;282.08;;;2.00;99.90;;;;;;5072141;28;20135;-61
2022/01/31 03:10:34;;;;;;;374.83;353.58;;;2.00;99.90;;;;;;5073429;28;20055;-62
2022/01/31 03:13:01;;;;;;;308.02;290.52;;;2.00;99.90;;;;;;5061880;28;20046;-62
2022/01/31 03:15:31;;;;;;;335.05;316.23;;;1.90;99.90;;;;;;5044211;28;20406;-62
2022/01/31 03:18:09;;;;;;;226.50;213.60;;;2.00;99.90;;;;;;5074328;28;20036;-61
2022/01/31 03:20:36;;;;;;;279.35;263.80;;;2.00;99.90;;;;;;5073808;28;20400;-61
2022/01/31 03:23:03;;;;;;;258.20;242.73;;;2.10;99.90;;;;;;5073592;28;20078;-61
2022/01/31 03:25:29;;;;;;;302.17;285.45;;;2.10;99.90;;;;;;5073917;28;20041;-62
2022/01/31 03:27:55;;;;;;;300.52;283.08;;;2.20;99.90;;;;;;5073611;28;20056;-62
2022/01/31 03:30:22;;;;;;;213.82;201.55;;;2.30;99.90;;;;;;5064094;28;20084;-62
2022/01/31 03:32:51;;;;;;;172.57;162.27;;;2.40;99.90;;;;;;5055696;28;20045;-62
2022/01/31 03:35:18;;;;;;;263.15;248.75;;;2.40;99.90;;;;;;5065460;28;20045;-63
2022/01/31 03:37:44;;;;;;;354.63;334.30;;;2.40;99.90;;;;;;5032911;28;20041;-62
2022/01/31 03:40:14;;;;;;;356.13;336.92;;;2.50;99.90;;;;;;5033417;28;20077;-62
2022/01/31 03:42:40;;;;;;;388.15;367.17;;;2.60;99.90;;;;;;5046828;28;20072;-62
2022/01/31 03:45:09;;;;;;;413.92;390.45;;;2.60;99.90;;;;;;5052773;28;20056;-62
2022/01/31 03:47:42;;;;;;;432.98;408.55;;;2.60;99.90;;;;;;5053422;28;20045;-62
2022/01/31 03:50:08;;;;;;;475.40;448.02;;;2.60;99.90;;;;;;5069841;28;20474;-63
2022/01/31 03:52:34;;;;;;;460.83;433.45;;;2.70;99.90;;;;;;5072686;28;20066;-62
2022/01/31 03:55:00;;;;;;;409.27;386.88;;;2.70;99.90;;;;;;5074609;28;20048;-61
2022/01/31 03:57:28;;;;;;;361.55;341.38;;;2.70;99.90;;;;;;5073088;28;20052;-61
2022/01/31 04:00:10;;;;;;;351.65;331.25;;;2.70;99.90;;;;;;5071678;28;20456;-62
2022/01/31 04:02:43;;;;;;;264.38;249.02;;;2.80;99.90;;;;;;5074622;28;20048;-61
2022/01/31 04:05:09;;;;;;;284.30;266.75;;;2.70;99.90;;;;;;5073656;28;20049;-61
2022/01/31 04:07:35;;;;;;;292.58;275.92;;;2.70;99.90;;;;;;5073360;28;20140;-62
2022/01/31 04:10:02;;;;;;;352.48;332.52;;;2.70;99.90;;;;;;5056921;28;20132;-62
2022/01/31 04:12:28;;;;;;;347.17;326.95;;;2.90;99.90;;;;;;5053087;28;20049;-61
2022/01/31 04:14:54;;;;;;;298.88;282.20;;;2.90;99.90;;;;;;5053629;28;20482;-61
2022/01/31 04:17:20;;;;;;;314.15;296.67;;;2.90;99.90;;;;;;5058064;28;20032;-61
2022/01/31 04:19:48;;;;;;;291.13;274.17;;;2.90;99.90;;;;;;5072757;28;20048;-61
2022/01/31 04:22:17;;;;;;;257.35;242.63;;;2.90;99.90;;;;;;5074210;28;20056;-61
2022/01/31 04:24:46;;;;;;;302.95;285.80;;;2.90;99.90;;;;;;5073640;28;20388;-61
2022/01/31 04:27:17;;;;;;;316.70;298.10;;;3.00;99.90;;;;;;5072252;28;20045;-61
2022/01/31 04:29:44;;;;;;;363.27;341.85;;;3.10;99.90;;;;;;5069209;28;20055;-61
2022/01/31 04:32:10;;;;;;;358.20;336.30;;;3.20;99.90;;;;;;5053604;28;20441;-61
2022/01/31 04:34:36;;;;;;;389.60;365.80;;;3.30;99.90;;;;;;5052666;28;20141;-62
2022/01/31 04:37:02;;;;;;;420.27;393.63;;;3.50;99.90;;;;;;5056546;28;20084;-62
2022/01/31 04:39:29;;;;;;;499.45;468.75;;;3.60;99.90;;;;;;5053475;28;20502;-63
2022/01/31 04:41:56;;;;;;;754.05;698.40;;;3.90;99.90;;;;;;5052433;28;20060;-62
2022/01/31 04:44:22;;;;;;;630.13;586.60;;;4.00;99.90;;;;;;5061536;28;20044;-63
2022/01/31 04:46:49;;;;;;;595.00;553.95;;;4.10;99.90;;;;;;5073107;28;20055;-62
2022/01/31 04:49:17;;;;;;;585.65;547.42;;;4.10;99.90;;;;;;5072610;28;20056;-62
2022/01/31 04:51:43;;;;;;;545.63;510.73;;;4.20;99.90;;;;;;5073686;28;20056;-62
2022/01/31 04:54:08;;;;;;;544.20;510.33;;;4.20;99.90;;;;;;5056942;28;20049;-62
2022/01/31 04:56:36;;;;;;;519.70;485.83;;;4.30;99.90;;;;;;5052418;28;20049;-61
2022/01/31 04:59:02;;;;;;;516.08;482.80;;;4.30;99.90;;;;;;5053385;28;20048;-62
2022/01/31 05:01:28;;;;;;;525.22;491.60;;;4.40;99.90;;;;;;5056060;28;20633;-62
2022/01/31 05:03:54;;;;;;;577.70;540.17;;;4.40;99.90;;;;;;5072348;28;20098;-62
2022/01/31 05:06:26;;;;;;;584.35;546.53;;;4.50;99.90;;;;;;5072853;28;20524;-61
2022/01/31 05:08:52;;;;;;;612.00;570.70;;;4.50;99.90;;;;;;5072614;28;20050;-62
2022/01/31 05:11:18;;;;;;;487.52;456.25;;;4.50;99.90;;;;;;5060928;28;20394;-62
2022/01/31 05:13:46;;;;;;;476.67;447.95;;;4.50;99.90;;;;;;5052933;28;20522;-62
2022/01/31 05:16:11;;;;;;;486.85;458.25;;;4.50;99.90;;;;;;5052458;28;20041;-62
2022/01/31 05:18:38;;;;;;;446.42;420.38;;;4.40;99.90;;;;;;5052693;28;20459;-62
2022/01/31 05:21:05;;;;;;;440.13;415.30;;;4.30;99.90;;;;;;5071991;28;20048;-62
2022/01/31 05:23:31;;;;;;;423.02;397.45;;;4.20;99.90;;;;;;5072287;28;20140;-62
2022/01/31 05:25:58;;;;;;;436.70;410.60;;;4.20;99.90;;;;;;5070246;28;20139;-63
2022/01/31 05:28:24;;;;;;;425.58;400.20;;;4.30;99.90;;;;;;5072196;28;20044;-62
2022/01/31 05:30:49;;;;;;;480.50;450.85;;;4.30;99.90;;;;;;5058136;28;20455;-62
2022/01/31 05:33:15;;;;;;;471.23;442.42;;;4.30;99.90;;;;;;5052755;28;20391;-62
2022/01/31 05:35:41;;;;;;;475.13;446.27;;;4.40;99.90;;;;;;5049518;28;20124;-62
2022/01/31 05:38:07;;;;;;;430.77;402.55;;;4.40;99.90;;;;;;5065575;28;20044;-63
2022/01/31 05:40:33;;;;;;;511.55;477.90;;;4.50;99.90;;;;;;5072569;28;20548;-62
2022/01/31 05:42:59;;;;;;;544.47;509.25;;;4.40;99.90;;;;;;5063270;28;20048;-62
2022/01/31 05:45:24;;;;;;;393.17;370.08;;;4.50;99.90;;;;;;5052529;28;20060;-63
2022/01/31 05:47:50;;;;;;;412.90;387.75;;;4.40;99.90;;;;;;5072491;28;20082;-62
2022/01/31 05:50:16;;;;;;;416.60;392.05;;;4.40;99.90;;;;;;5072828;28;20045;-63
2022/01/31 05:52:43;;;;;;;419.80;395.80;;;4.30;99.90;;;;;;5071967;28;20048;-62
2022/01/31 05:55:09;;;;;;;446.30;419.25;;;4.20;99.90;;;;;;5071978;28;20054;-62
2022/01/31 05:57:36;;;;;;;402.50;379.45;;;4.20;99.90;;;;;;5071131;28;20379;-62
2022/01/31 06:00:04;;;;;;;433.48;410.23;;;4.20;99.90;;;;;;5071824;28;20059;-62
2022/01/31 06:02:30;;;;;;;404.33;381.20;;;4.20;99.90;;;;;;5072392;28;20136;-62
2022/01/31 06:04:58;;;;;;;380.08;358.98;;;4.10;99.90;;;;;;5070075;28;20094;-62
2022/01/31 06:07:24;;;;;;;378.35;357.27;;;4.00;99.90;;;;;;5072222;28;20061;-62
2022/01/31 06:09:49;;;;;;;436.45;410.85;;;4.00;99.90;;;;;;5072376;28;20048;-62
2022/01/31 06:12:16;;;;;;;481.60;453.75;;;4.00;99.90;;;;;;5069465;28;20075;-62
2022/01/31 06:14:42;;;;;;;404.65;380.85;;;4.10;99.90;;;;;;5052518;28;20055;-62
2022/01/31 06:17:08;;;;;;;399.00;376.83;;;4.10;99.90;;;;;;5052093;28;20041;-63
2022/01/31 06:19:33;;;;;;;435.35;410.13;;;4.10;99.90;;;;;;5051704;28;20399;-62
2022/01/31 06:21:59;;;;;;;426.35;402.45;;;4.20;99.90;;;;;;5062915;28;20044;-61
2022/01/31 06:24:25;;;;;;;430.02;405.00;;;4.20;99.90;;;;;;5071956;28;20161;-62
2022/01/31 06:26:53;;;;;;;408.75;384.83;;;4.10;99.90;;;;;;5070248;28;20040;-62
2022/01/31 06:29:21;;;;;;;425.05;399.98;;;4.20;99.90;;;;;;5069351;28;20049;-62
2022/01/31 06:31:54;;;;;;;392.30;368.98;;;4.20;99.90;;;;;;5070084;28;20044;-62
2022/01/31 06:34:20;;;;;;;388.70;366.33;;;4.20;99.90;;;;;;5071431;28;20048;-62
2022/01/31 06:36:45;;;;;;;412.67;389.73;;;4.20;99.90;;;;;;5039911;28;20042;-62
2022/01/31 06:39:11;;;;;;;409.35;386.10;;;4.20;99.90;;;;;;5048671;28;20082;-62
2022/01/31 06:41:37;;;;;;;394.55;371.08;;;4.20;99.90;;;;;;5075550;28;20052;-62
2022/01/31 06:44:03;;;;;;;477.88;449.17;;;4.30;99.90;;;;;;5057707;28;20045;-62
2022/01/31 06:46:28;;;;;;;433.88;408.30;;;4.20;99.90;;;;;;5055585;28;20496;-63
2022/01/31 06:48:54;;;;;;;398.35;375.42;;;4.20;99.90;;;;;;5068674;28;20137;-62
2022/01/31 06:51:20;;;;;;;379.75;358.30;;;4.10;99.90;;;;;;5075626;28;20045;-62
2022/01/31 06:53:48;;;;;;;385.98;362.58;;;4.10;99.90;;;;;;5075053;28;20044;-62
2022/01/31 06:56:16;;;;;;;378.17;355.98;;;4.10;99.90;;;;;;5074471;28;20044;-63
2022/01/31 06:58:42;;;;;;;375.52;354.20;;;3.90;99.90;;;;;;5075633;28;20055;-62
2022/01/31 07:01:08;;;;;;;452.58;426.42;;;4.00;99.90;;;;;;5074532;28;20041;-63
2022/01/31 07:03:36;;;;;;;383.13;361.15;;;3.90;99.90;;;;;;5075759;28;20466;-62
2022/01/31 07:06:02;;;;;;;369.35;347.85;;;3.90;99.90;;;;;;5074791;28;20052;-62
2022/01/31 07:08:28;;;;;;;434.35;408.25;;;4.00;99.90;;;;;;5073996;28;20420;-61
2022/01/31 07:10:54;;;;;;;458.90;430.50;;;4.00;99.90;;;;;;5075164;28;20489;-62
2022/01/31 07:15:56;;;;;;;471.42;442.75;;;3.90;99.90;;;;;;5071607;28;20045;-62
2022/01/31 07:18:22;;;;;;;467.52;438.80;;;4.00;99.90;;;;;;5075220;28;20542;-62
2022/01/31 07:20:51;;;;;;;453.23;425.73;;;4.00;99.90;;;;;;5075323;28;20441;-62
2022/01/31 07:23:23;;;;;;;430.52;404.85;;;4.00;99.90;;;;;;5073813;28;20555;-62
2022/01/31 07:25:49;;;;;;;548.17;511.50;;;4.10;99.90;;;;;;5075041;28;20051;-62
2022/01/31 07:28:16;;;;;;;473.63;443.45;;;4.10;99.90;;;;;;5074949;28;20045;-62
2022/01/31 07:30:46;;;;;;;409.67;386.52;;;4.10;99.90;;;;;;5060869;28;20049;-62
2022/01/31 07:33:12;;;;;;;425.55;401.00;;;4.10;99.90;;;;;;5068553;28;20082;-62
2022/01/31 07:35:40;;;;;;;398.08;376.20;;;4.20;99.90;;;;;;5059762;28;20084;-62
2022/01/31 07:38:06;;;;;;;355.17;335.33;;;4.10;99.90;;;;;;5033894;28;20054;-62
2022/01/31 07:40:32;;;;;;;334.85;315.73;;;4.10;99.90;;;;;;5036437;28;20112;-62
2022/01/31 07:42:57;;;;;;;336.15;317.83;;;4.10;99.90;;;;;;5054711;28;20101;-62
2022/01/31 07:45:23;;;;;;;330.95;312.80;;;4.10;99.90;;;;;;5053961;28;20044;-62
2022/01/31 07:47:49;;;;;;;311.20;294.48;;;4.10;99.90;;;;;;5052956;28;20056;-62
2022/01/31 07:50:15;;;;;;;328.17;310.33;;;4.10;99.90;;;;;;5063042;28;20245;-62
2022/01/31 07:52:41;;;;;;;307.10;290.60;;;4.10;99.90;;;;;;5073683;28;20115;-62
2022/01/31 07:55:08;;;;;;;294.25;278.90;;;4.20;99.90;;;;;;5074553;28;20044;-62
2022/01/31 07:57:35;;;;;;;291.77;276.08;;;4.10;99.90;;;;;;5073498;28;20376;-62
2022/01/31 08:00:03;;;;;;;288.35;273.08;;;4.20;99.90;;;;;;5057104;28;20048;-63
2022/01/31 08:02:38;;;;;;;257.45;243.23;;;4.20;99.90;;;;;;5054521;28;20056;-62
2022/01/31 08:05:07;;;;;;;294.95;278.52;;;4.20;99.90;;;;;;5053610;28;20055;-62
2022/01/31 08:07:33;;;;;;;284.75;269.85;;;4.20;99.90;;;;;;5059093;28;20075;-63
2022/01/31 08:10:01;;;;;;;273.58;259.50;;;4.20;99.90;;;;;;5074252;28;20041;-62
2022/01/31 08:12:27;;;;;;;340.02;322.02;;;4.30;99.90;;;;;;5070020;28;20048;-63
2022/01/31 08:15:00;;;;;;;341.88;324.45;;;4.30;99.90;;;;;;5052724;28;20049;-62
2022/01/31 08:17:26;;;;;;;451.17;425.70;;;4.30;99.90;;;;;;5068087;28;20044;-63
2022/01/31 08:19:52;;;;;;;431.30;407.20;;;4.40;99.90;;;;;;5060199;28;20541;-63
2022/01/31 08:22:18;;;;;;;415.98;391.45;;;4.40;99.90;;;;;;5053036;28;20041;-63
2022/01/31 08:24:44;;;;;;;409.40;386.63;;;4.50;99.90;;;;;;5054446;28;20099;-63
2022/01/31 08:27:09;;;;;;;415.10;391.10;;;4.60;99.90;;;;;;5052781;28;20681;-63
2022/01/31 08:29:37;;;;;;;435.15;409.63;;;4.60;99.90;;;;;;5053241;28;20092;-63
2022/01/31 08:32:09;;;;;;;389.55;367.63;;;4.70;99.90;;;;;;5053925;28;20095;-63
2022/01/31 08:37:20;;;;;;;464.80;436.73;;;4.70;99.90;;;;;;5033862;28;20407;-63
2022/01/31 08:39:45;;;;;;;398.90;376.42;;;4.70;99.90;;;;;;5032837;28;20042;-63
2022/01/31 08:42:11;;;;;;;397.42;374.98;;;4.80;99.90;;;;;;5036586;28;20127;-63
2022/01/31 08:44:37;;;;;;;374.98;354.58;;;4.80;99.90;;;;;;5072318;28;20051;-63
2022/01/31 08:47:04;;;;;;;417.05;393.55;;;4.80;99.90;;;;;;5072548;28;20051;-63
2022/01/31 08:49:33;;;;;;;406.55;383.42;;;4.80;99.90;;;;;;5073583;28;20059;-63
2022/01/31 08:51:59;;;;;;;401.25;378.50;;;4.80;99.90;;;;;;5065272;28;20048;-63
2022/01/31 08:54:25;;;;;;;393.27;370.92;;;4.90;99.90;;;;;;5052655;28;20053;-63
2022/01/31 08:56:51;;;;;;;383.73;362.25;;;4.90;99.90;;;;;;5052057;28;20546;-63
2022/01/31 08:59:19;;;;;;;464.88;438.25;;;5.00;99.90;;;;;;5052845;28;20099;-63
2022/01/31 09:01:52;;;;;;;427.30;401.98;;;5.00;99.90;;;;;;5067176;28;20434;-63
2022/01/31 09:04:35;;;;;;;423.38;399.38;;;5.40;99.90;;;;;;5065676;28;20044;-63
2022/01/31 09:07:02;;;;;;;513.10;481.92;;;;;;;;;;5050599;28;20518;-63
2022/01/31 09:09:30;;;;;;;438.27;412.52;;;5.10;99.90;;;;;;5057809;28;20056;-63
2022/01/31 09:11:57;;;;;;;414.73;390.70;;;5.20;99.90;;;;;;5070394;28;20080;-63
2022/01/31 09:14:24;;;;;;;394.60;372.08;;;5.20;99.90;;;;;;5066147;28;20041;-62
2022/01/31 09:16:50;;;;;;;448.38;422.17;;;5.20;99.90;;;;;;5054942;28;20048;-63
2022/01/31 09:19:16;;;;;;;410.35;387.20;;;5.20;99.90;;;;;;5065760;28;20501;-63
2022/01/31 09:21:42;;;;;;;429.58;404.17;;;5.30;99.90;;;;;;5063500;28;20045;-63
2022/01/31 09:24:07;;;;;;;394.13;371.63;;;5.30;99.90;;;;;;5051830;28;20522;-63
2022/01/31 09:26:34;;;;;;;424.02;400.02;;;5.70;99.90;;;;;;5065500;28;20402;-63
2022/01/31 09:29:00;;;;;;;398.63;375.55;;;5.80;99.90;;;;;;5071805;28;20044;-63
2022/01/31 09:31:26;;;;;;;391.65;369.58;;;5.70;99.90;;;;;;5053599;28;20056;-63
2022/01/31 09:33:52;;;;;;;397.52;374.90;;;5.70;99.90;;;;;;5043404;28;20053;-63
2022/01/31 09:36:18;;;;;;;325.42;308.02;;;5.60;99.90;;;;;;5047272;28;20044;-63
2022/01/31 09:38:44;;;;;;;322.40;304.60;;;5.70;99.90;;;;;;5052481;28;20045;-63
2022/01/31 09:41:14;;;;;;;338.48;320.27;;;5.70;99.90;;;;;;5052735;28;20044;-63
2022/01/31 09:43:59;;;;;;;312.50;295.63;;;5.80;99.90;;;;;;5051339;28;20045;-63
2022/01/31 09:48:51;;;;;;;260.70;247.25;;;6.10;99.90;;;;;;5052367;28;20051;-63
2022/01/31 09:51:20;;;;;;;244.93;232.30;;;6.10;99.90;;;;;;5051193;28;20049;-63
2022/01/31 09:53:49;;;;;;;233.25;222.00;;;6.20;99.90;;;;;;5058457;28;20124;-64
2022/01/31 09:56:25;;;;;;;252.45;239.93;;;6.30;99.90;;;;;;5072699;28;20044;-63
2022/01/31 09:58:54;;;;;;;203.23;193.70;;;6.30;99.90;;;;;;5071342;28;20056;-63
2022/01/31 10:01:25;;;;;;;220.02;209.27;;;6.40;99.90;;;;;;5049922;28;20048;-63
2022/01/31 10:03:55;;;;;;;188.77;180.07;;;6.50;99.90;;;;;;5055695;28;20115;-64
2022/01/31 10:06:27;;;;;;;197.75;187.88;;;6.60;99.90;;;;;;5061526;28;20075;-63
2022/01/31 10:09:04;;;;;;;230.02;219.27;;;6.70;99.90;;;;;;5048327;28;20049;-63
2022/01/31 10:11:39;;;;;;;198.20;188.57;;;6.90;99.90;;;;;;5052056;28;20053;-64
2022/01/31 10:17:21;;;;;;;216.90;206.18;;;7.70;99.90;;;;;;5036231;28;20085;-64
2022/01/31 10:19:47;;;;;;;278.67;264.63;;;8.20;99.90;;;;;;5044859;28;20087;-64
2022/01/31 10:22:16;;;;;;;198.40;189.18;;;8.20;99.90;;;;;;5055637;28;20037;-63
2022/01/31 10:24:45;;;;;;;195.10;186.15;;;8.10;99.90;;;;;;5056388;28;20102;-63
2022/01/31 10:27:18;;;;;;;213.52;202.63;;;8.40;99.90;;;;;;5054179;28;20041;-63
2022/01/31 10:29:45;;;;;;;236.75;225.82;;;8.80;99.90;;;;;;5051184;28;20116;-63
2022/01/31 10:32:17;;;;;;;189.93;181.05;;;9.10;99.90;;;;;;5046467;28;20050;-63
2022/01/31 10:34:51;;;;;;;220.95;210.20;;;9.20;99.90;;;;;;5035432;28;20088;-65
2022/01/31 10:37:19;;;;;;;253.20;239.85;;;9.50;99.90;;;;;;5034178;28;20069;-64
2022/01/31 10:51:23;;;;;;;129.07;123.30;;;9.00;99.90;;;;;;5054371;28;20053;-63
2022/01/31 10:53:56;;;;;;;127.40;121.22;;;9.20;99.90;;;;;;5034698;28;20050;-63
2022/01/31 10:56:23;;;;;;;136.50;129.52;;;9.20;99.90;;;;;;5066414;28;20049;-64
2022/01/31 10:58:55;;;;;;;129.55;123.57;;;9.20;99.90;;;;;;5074683;28;20049;-63
2022/01/31 11:01:21;;;;;;;171.75;163.88;;;9.10;99.90;;;;;;5054256;28;20040;-63
2022/01/31 11:03:47;;;;;;;142.38;135.68;;;8.80;99.90;;;;;;5055062;28;20052;-63
2022/01/31 11:06:13;;;;;;;194.95;186.05;;;8.30;99.90;;;;;;5074176;28;20079;-62
2022/01/31 11:08:40;;;;;;;250.25;238.23;;;8.00;99.90;;;;;;5074282;28;20056;-62
2022/01/31 11:11:06;;;;;;;224.48;213.60;;;8.00;99.90;;;;;;5075235;28;20048;-63
2022/01/31 11:13:34;;;;;;;211.55;201.73;;;7.90;99.90;;;;;;5074217;28;20385;-64
2022/01/31 11:16:00;;;;;;;233.68;222.27;;;7.90;99.90;;;;;;5074239;28;20127;-62
2022/01/31 11:18:30;;;;;;;281.50;267.38;;;7.90;99.90;;;;;;5057319;28;20120;-64
2022/01/31 11:21:00;;;;;;;167.32;159.45;;;7.90;99.90;;;;;;5053250;28;20552;-63
2022/01/31 11:23:28;;;;;;;183.65;174.77;;;8.00;99.90;;;;;;5049958;28;20052;-63
2022/01/31 11:25:58;;;;;;;218.75;207.77;;;8.00;99.90;;;;;;5054418;28;20053;-63
2022/01/31 11:28:29;;;;;;;217.25;207.07;;;8.00;99.90;;;;;;5053458;28;20041;-62
2022/01/31 11:30:55;;;;;;;340.23;322.60;;;8.00;99.90;;;;;;5048047;28;20094;-63
2022/01/31 11:33:22;;;;;;;189.45;180.65;;;8.00;99.90;;;;;;5054757;28;20083;-63
2022/01/31 11:35:48;;;;;;;269.92;256.25;;;8.20;99.90;;;;;;5049837;28;20124;-62
2022/01/31 11:38:16;;;;;;;265.92;252.50;;;8.20;99.90;;;;;;5053363;28;20215;-62
2022/01/31 11:40:42;;;;;;;384.35;361.08;;;8.10;99.90;;;;;;5044707;28;20067;-62
2022/01/31 11:43:10;;;;;;;214.88;204.45;;;8.00;99.90;;;;;;5053183;28;20033;-63
2022/01/31 11:45:39;;;;;;;252.23;238.68;;;7.80;99.90;;;;;;5054274;28;20487;-63
2022/01/31 11:48:17;;;;;;;236.45;224.13;;;7.70;99.90;;;;;;5052176;28;20117;-63
2022/01/31 11:50:47;;;;;;;196.15;186.65;;;7.70;99.90;;;;;;5073393;28;20044;-63
2022/01/31 11:53:14;;;;;;;207.05;196.65;;;7.70;99.90;;;;;;5074792;28;20087;-63
2022/01/31 11:55:41;;;;;;;197.52;187.52;;;7.70;99.90;;;;;;5070323;28;20041;-63
2022/01/31 11:58:09;;;;;;;218.82;206.82;;;7.90;99.90;;;;;;5063141;28;20119;-63
2022/01/31 12:00:38;;;;;;;217.02;206.65;;;8.00;99.90;;;;;;5074397;28;20097;-63
2022/01/31 12:03:07;;;;;;;185.70;176.07;;;8.00;99.90;;;;;;5074416;28;20076;-63
2022/01/31 12:05:36;;;;;;;210.93;200.23;;;7.90;99.90;;;;;;5073145;28;20059;-64
2022/01/31 12:08:07;;;;;;;196.50;184.20;;;7.90;99.90;;;;;;5054737;28;20388;-63
2022/01/31 12:10:37;;;;;;;183.85;174.77;;;7.90;99.90;;;;;;5054016;28;20041;-64
2022/01/31 12:13:26;;;;;;;175.77;166.80;;;8.10;99.90;;;;;;5053836;28;20551;-64
2022/01/31 12:16:06;;;;;;;170.65;161.68;;;8.20;99.90;;;;;;5064115;28;20094;-63
2022/01/31 12:23:54;;;;;;;177.27;168.13;;;7.90;99.90;;;;;;5061416;28;20123;-63
2022/01/31 12:26:32;;;;;;;196.43;186.40;;;7.80;99.90;;;;;;5051806;28;20049;-64
2022/01/31 12:29:00;;;;;;;187.90;177.68;;;7.80;99.90;;;;;;5052173;28;20055;-63
2022/01/31 12:31:33;;;;;;;206.13;195.32;;;7.70;99.90;;;;;;5053019;28;20059;-63
2022/01/31 12:33:58;;;;;;;239.43;226.95;;;7.70;99.90;;;;;;5052673;28;20107;-63
2022/01/31 12:36:34;;;;;;;183.00;172.95;;;7.70;99.90;;;;;;5052521;28;20041;-64
2022/01/31 12:39:02;;;;;;;225.68;213.02;;;7.70;99.90;;;;;;5051881;28;20096;-64
2022/01/31 12:41:32;;;;;;;217.57;206.15;;;7.70;99.90;;;;;;5070552;28;21433;-64
2022/01/31 12:44:42;;;;;;;209.45;198.63;;;7.60;99.90;;;;;;5055751;28;20052;-63
2022/01/31 12:47:11;;;;;;;198.90;187.30;;;7.60;99.90;;;;;;5052863;28;20044;-64
2022/01/31 12:49:38;;;;;;;223.05;211.13;;;7.80;99.90;;;;;;5053182;28;20056;-64
2022/01/31 12:52:06;;;;;;;157.05;148.88;;;8.00;99.90;;;;;;5070265;28;20056;-65